sensor_id;sensor_type;location;lat;lon;timestamp;P1;durP1;ratioP1;P2;durP2;ratioP2
2728;SDS011;1372;47.956;7.830;2024-02-26T00:02:16;0.73;;;0.43;;
2728;SDS011;1372;47.956;7.830;2024-02-26T00:04:46;1.13;;;0.50;;
2728;SDS011;1372;47.956;7.830;2024-02-26T00:07:16;0.50;;;0.50;;
2728;SDS011;1372;47.956;7.830;2024-02-26T00:09:45;0.60;;;0.50;;
2728;SDS011;1372;47.956;7.830;2024-02-26T00:12:14;0.70;;;0.70;;
2728;SDS011;1372;47.956;7.830;2024-02-26T00:14:43;1.17;;;0.40;;
2728;SDS011;1372;47.956;7.830;2024-02-26T00:17:13;0.30;;;0.30;;
2728;SDS011;1372;47.956;7.830;2024-02-26T00:19:42;0.40;;;0.40;;
2728;SDS011;1372;47.956;7.830;2024-02-26T00:22:11;0.30;;;0.30;;
2728;SDS011;1372;47.956;7.830;2024-02-26T00:24:42;0.83;;;0.30;;
2728;SDS011;1372;47.956;7.830;2024-02-26T00:27:10;0.40;;;0.40;;
2728;SDS011;1372;47.956;7.830;2024-02-26T00:29:40;0.73;;;0.63;;
2728;SDS011;1372;47.956;7.830;2024-02-26T00:32:09;0.40;;;0.30;;
2728;SDS011;1372;47.956;7.830;2024-02-26T00:34:38;0.67;;;0.50;;
2728;SDS011;1372;47.956;7.830;2024-02-26T00:37:07;0.50;;;0.50;;
2728;SDS011;1372;47.956;7.830;2024-02-26T00:39:36;1.00;;;0.30;;
2728;SDS011;1372;47.956;7.830;2024-02-26T00:42:06;0.60;;;0.40;;
2728;SDS011;1372;47.956;7.830;2024-02-26T00:44:38;1.00;;;0.40;;
2728;SDS011;1372;47.956;7.830;2024-02-26T00:47:07;0.40;;;0.40;;
2728;SDS011;1372;47.956;7.830;2024-02-26T00:49:36;0.30;;;0.30;;
2728;SDS011;1372;47.956;7.830;2024-02-26T00:52:05;0.37;;;0.37;;
2728;SDS011;1372;47.956;7.830;2024-02-26T00:54:34;0.30;;;0.30;;
2728;SDS011;1372;47.956;7.830;2024-02-26T00:57:03;1.30;;;0.53;;
2728;SDS011;1372;47.956;7.830;2024-02-26T00:59:33;0.70;;;0.30;;
2728;SDS011;1372;47.956;7.830;2024-02-26T01:02:04;2.00;;;0.50;;
2728;SDS011;1372;47.956;7.830;2024-02-26T01:04:33;0.37;;;0.37;;
2728;SDS011;1372;47.956;7.830;2024-02-26T01:07:02;0.43;;;0.40;;
2728;SDS011;1372;47.956;7.830;2024-02-26T01:09:31;0.60;;;0.50;;
2728;SDS011;1372;47.956;7.830;2024-02-26T01:12:00;0.90;;;0.50;;
2728;SDS011;1372;47.956;7.830;2024-02-26T01:14:33;0.40;;;0.40;;
2728;SDS011;1372;47.956;7.830;2024-02-26T01:17:06;0.40;;;0.30;;
2728;SDS011;1372;47.956;7.830;2024-02-26T01:19:34;0.93;;;0.50;;
2728;SDS011;1372;47.956;7.830;2024-02-26T01:22:04;0.40;;;0.40;;
2728;SDS011;1372;47.956;7.830;2024-02-26T01:24:37;0.77;;;0.40;;
2728;SDS011;1372;47.956;7.830;2024-02-26T01:27:06;0.50;;;0.50;;
2728;SDS011;1372;47.956;7.830;2024-02-26T01:29:37;0.50;;;0.50;;
2728;SDS011;1372;47.956;7.830;2024-02-26T01:32:06;0.30;;;0.30;;
2728;SDS011;1372;47.956;7.830;2024-02-26T01:34:35;0.50;;;0.50;;
2728;SDS011;1372;47.956;7.830;2024-02-26T01:37:04;0.50;;;0.50;;
2728;SDS011;1372;47.956;7.830;2024-02-26T01:39:35;0.70;;;0.60;;
2728;SDS011;1372;47.956;7.830;2024-02-26T01:42:04;1.43;;;0.63;;
2728;SDS011;1372;47.956;7.830;2024-02-26T01:44:37;0.40;;;0.40;;
2728;SDS011;1372;47.956;7.830;2024-02-26T01:47:07;0.43;;;0.43;;
2728;SDS011;1372;47.956;7.830;2024-02-26T01:49:38;0.43;;;0.43;;
2728;SDS011;1372;47.956;7.830;2024-02-26T01:52:07;0.57;;;0.40;;
2728;SDS011;1372;47.956;7.830;2024-02-26T01:54:38;0.40;;;0.40;;
2728;SDS011;1372;47.956;7.830;2024-02-26T01:57:08;0.60;;;0.47;;
2728;SDS011;1372;47.956;7.830;2024-02-26T01:59:39;0.40;;;0.40;;
2728;SDS011;1372;47.956;7.830;2024-02-26T02:02:09;0.50;;;0.50;;
2728;SDS011;1372;47.956;7.830;2024-02-26T02:04:40;0.77;;;0.53;;
2728;SDS011;1372;47.956;7.830;2024-02-26T02:07:10;0.50;;;0.43;;
2728;SDS011;1372;47.956;7.830;2024-02-26T02:09:39;0.43;;;0.40;;
2728;SDS011;1372;47.956;7.830;2024-02-26T02:12:08;0.83;;;0.40;;
2728;SDS011;1372;47.956;7.830;2024-02-26T02:14:40;0.40;;;0.40;;
2728;SDS011;1372;47.956;7.830;2024-02-26T02:17:09;0.40;;;0.40;;
2728;SDS011;1372;47.956;7.830;2024-02-26T02:19:38;0.30;;;0.30;;
2728;SDS011;1372;47.956;7.830;2024-02-26T02:22:09;0.50;;;0.50;;
2728;SDS011;1372;47.956;7.830;2024-02-26T02:24:38;0.30;;;0.30;;
2728;SDS011;1372;47.956;7.830;2024-02-26T02:27:06;0.60;;;0.50;;
2728;SDS011;1372;47.956;7.830;2024-02-26T02:29:35;0.40;;;0.40;;
2728;SDS011;1372;47.956;7.830;2024-02-26T02:32:05;0.80;;;0.70;;
2728;SDS011;1372;47.956;7.830;2024-02-26T02:34:36;1.17;;;0.40;;
2728;SDS011;1372;47.956;7.830;2024-02-26T02:37:05;0.50;;;0.50;;
2728;SDS011;1372;47.956;7.830;2024-02-26T02:39:35;0.40;;;0.40;;
2728;SDS011;1372;47.956;7.830;2024-02-26T02:42:07;0.77;;;0.30;;
2728;SDS011;1372;47.956;7.830;2024-02-26T02:44:36;0.40;;;0.40;;
2728;SDS011;1372;47.956;7.830;2024-02-26T02:47:04;0.53;;;0.53;;
2728;SDS011;1372;47.956;7.830;2024-02-26T02:49:33;0.63;;;0.63;;
2728;SDS011;1372;47.956;7.830;2024-02-26T02:52:02;0.37;;;0.30;;
2728;SDS011;1372;47.956;7.830;2024-02-26T02:54:32;0.53;;;0.40;;
2728;SDS011;1372;47.956;7.830;2024-02-26T02:57:02;0.60;;;0.30;;
2728;SDS011;1372;47.956;7.830;2024-02-26T02:59:33;0.50;;;0.50;;
2728;SDS011;1372;47.956;7.830;2024-02-26T03:02:03;0.60;;;0.53;;
2728;SDS011;1372;47.956;7.830;2024-02-26T03:04:33;1.17;;;0.60;;
2728;SDS011;1372;47.956;7.830;2024-02-26T03:07:02;0.40;;;0.40;;
2728;SDS011;1372;47.956;7.830;2024-02-26T03:09:34;0.40;;;0.40;;
2728;SDS011;1372;47.956;7.830;2024-02-26T03:12:05;0.90;;;0.60;;
2728;SDS011;1372;47.956;7.830;2024-02-26T03:14:34;0.70;;;0.50;;
2728;SDS011;1372;47.956;7.830;2024-02-26T03:17:05;0.50;;;0.50;;
2728;SDS011;1372;47.956;7.830;2024-02-26T03:19:36;0.50;;;0.50;;
2728;SDS011;1372;47.956;7.830;2024-02-26T03:22:08;0.40;;;0.40;;
2728;SDS011;1372;47.956;7.830;2024-02-26T03:24:37;0.70;;;0.70;;
2728;SDS011;1372;47.956;7.830;2024-02-26T03:27:08;0.57;;;0.50;;
2728;SDS011;1372;47.956;7.830;2024-02-26T03:29:37;0.50;;;0.50;;
2728;SDS011;1372;47.956;7.830;2024-02-26T03:32:06;0.50;;;0.50;;
2728;SDS011;1372;47.956;7.830;2024-02-26T03:34:35;0.83;;;0.53;;
2728;SDS011;1372;47.956;7.830;2024-02-26T03:37:06;0.50;;;0.47;;
2728;SDS011;1372;47.956;7.830;2024-02-26T03:39:37;0.50;;;0.50;;
2728;SDS011;1372;47.956;7.830;2024-02-26T03:42:05;0.57;;;0.50;;
2728;SDS011;1372;47.956;7.830;2024-02-26T03:44:36;1.03;;;0.70;;
2728;SDS011;1372;47.956;7.830;2024-02-26T03:47:04;0.43;;;0.43;;
2728;SDS011;1372;47.956;7.830;2024-02-26T03:49:33;1.83;;;0.50;;
2728;SDS011;1372;47.956;7.830;2024-02-26T03:52:02;0.43;;;0.43;;
2728;SDS011;1372;47.956;7.830;2024-02-26T03:54:32;0.93;;;0.50;;
2728;SDS011;1372;47.956;7.830;2024-02-26T03:57:01;0.50;;;0.50;;
2728;SDS011;1372;47.956;7.830;2024-02-26T03:59:36;0.50;;;0.50;;
2728;SDS011;1372;47.956;7.830;2024-02-26T04:02:04;0.57;;;0.57;;
2728;SDS011;1372;47.956;7.830;2024-02-26T04:04:36;0.60;;;0.60;;
2728;SDS011;1372;47.956;7.830;2024-02-26T04:07:04;2.70;;;0.87;;
2728;SDS011;1372;47.956;7.830;2024-02-26T04:09:34;1.27;;;0.80;;
2728;SDS011;1372;47.956;7.830;2024-02-26T04:12:05;0.60;;;0.60;;
2728;SDS011;1372;47.956;7.830;2024-02-26T04:14:36;0.63;;;0.60;;
2728;SDS011;1372;47.956;7.830;2024-02-26T04:17:05;1.40;;;1.00;;
2728;SDS011;1372;47.956;7.830;2024-02-26T04:19:35;1.30;;;0.93;;
2728;SDS011;1372;47.956;7.830;2024-02-26T04:22:06;1.10;;;1.00;;
2728;SDS011;1372;47.956;7.830;2024-02-26T04:24:35;0.70;;;0.67;;
2728;SDS011;1372;47.956;7.830;2024-02-26T04:27:04;0.80;;;0.80;;
2728;SDS011;1372;47.956;7.830;2024-02-26T04:29:33;0.60;;;0.50;;
2728;SDS011;1372;47.956;7.830;2024-02-26T04:32:04;1.00;;;0.67;;
2728;SDS011;1372;47.956;7.830;2024-02-26T04:34:33;0.70;;;0.50;;
2728;SDS011;1372;47.956;7.830;2024-02-26T04:37:02;2.70;;;0.80;;
2728;SDS011;1372;47.956;7.830;2024-02-26T04:39:31;0.67;;;0.60;;
2728;SDS011;1372;47.956;7.830;2024-02-26T04:42:00;0.50;;;0.50;;
2728;SDS011;1372;47.956;7.830;2024-02-26T04:44:30;1.27;;;0.63;;
2728;SDS011;1372;47.956;7.830;2024-02-26T04:46:59;0.50;;;0.43;;
2728;SDS011;1372;47.956;7.830;2024-02-26T04:49:30;1.47;;;0.70;;
2728;SDS011;1372;47.956;7.830;2024-02-26T04:51:58;0.53;;;0.53;;
2728;SDS011;1372;47.956;7.830;2024-02-26T04:54:27;1.20;;;1.10;;
2728;SDS011;1372;47.956;7.830;2024-02-26T04:56:56;0.93;;;0.80;;
2728;SDS011;1372;47.956;7.830;2024-02-26T04:59:25;0.87;;;0.87;;
2728;SDS011;1372;47.956;7.830;2024-02-26T05:01:54;1.03;;;0.77;;
2728;SDS011;1372;47.956;7.830;2024-02-26T05:04:23;3.43;;;1.30;;
2728;SDS011;1372;47.956;7.830;2024-02-26T05:06:53;0.80;;;0.80;;
2728;SDS011;1372;47.956;7.830;2024-02-26T05:09:22;0.77;;;0.77;;
2728;SDS011;1372;47.956;7.830;2024-02-26T05:11:54;1.10;;;1.00;;
2728;SDS011;1372;47.956;7.830;2024-02-26T05:14:25;0.93;;;0.67;;
2728;SDS011;1372;47.956;7.830;2024-02-26T05:16:54;1.17;;;1.00;;
2728;SDS011;1372;47.956;7.830;2024-02-26T05:19:24;0.83;;;0.83;;
2728;SDS011;1372;47.956;7.830;2024-02-26T05:21:54;1.23;;;1.00;;
2728;SDS011;1372;47.956;7.830;2024-02-26T05:24:23;1.20;;;1.13;;
2728;SDS011;1372;47.956;7.830;2024-02-26T05:26:53;1.37;;;1.27;;
2728;SDS011;1372;47.956;7.830;2024-02-26T05:29:22;0.80;;;0.80;;
2728;SDS011;1372;47.956;7.830;2024-02-26T05:31:51;4.00;;;2.50;;
2728;SDS011;1372;47.956;7.830;2024-02-26T05:34:21;1.20;;;1.20;;
2728;SDS011;1372;47.956;7.830;2024-02-26T05:36:50;2.60;;;2.07;;
2728;SDS011;1372;47.956;7.830;2024-02-26T05:39:20;19.13;;;11.93;;
2728;SDS011;1372;47.956;7.830;2024-02-26T05:41:52;6.80;;;4.83;;
2728;SDS011;1372;47.956;7.830;2024-02-26T05:44:22;6.00;;;3.97;;
2728;SDS011;1372;47.956;7.830;2024-02-26T05:46:51;2.80;;;2.00;;
2728;SDS011;1372;47.956;7.830;2024-02-26T05:49:20;1.10;;;1.00;;
2728;SDS011;1372;47.956;7.830;2024-02-26T05:51:50;1.20;;;1.10;;
2728;SDS011;1372;47.956;7.830;2024-02-26T05:54:20;0.87;;;0.67;;
2728;SDS011;1372;47.956;7.830;2024-02-26T05:56:52;1.23;;;1.23;;
2728;SDS011;1372;47.956;7.830;2024-02-26T05:59:26;1.10;;;1.10;;
2728;SDS011;1372;47.956;7.830;2024-02-26T06:01:55;1.20;;;1.10;;
2728;SDS011;1372;47.956;7.830;2024-02-26T06:04:24;0.90;;;0.90;;
2728;SDS011;1372;47.956;7.830;2024-02-26T06:06:53;0.73;;;0.73;;
2728;SDS011;1372;47.956;7.830;2024-02-26T06:09:25;1.00;;;0.90;;
2728;SDS011;1372;47.956;7.830;2024-02-26T06:11:54;0.50;;;0.50;;
2728;SDS011;1372;47.956;7.830;2024-02-26T06:14:23;0.50;;;0.50;;
2728;SDS011;1372;47.956;7.830;2024-02-26T06:16:52;0.50;;;0.50;;
2728;SDS011;1372;47.956;7.830;2024-02-26T06:19:21;0.70;;;0.60;;
2728;SDS011;1372;47.956;7.830;2024-02-26T06:21:50;0.70;;;0.70;;
2728;SDS011;1372;47.956;7.830;2024-02-26T06:24:22;2.20;;;1.50;;
2728;SDS011;1372;47.956;7.830;2024-02-26T06:26:55;1.07;;;0.97;;
2728;SDS011;1372;47.956;7.830;2024-02-26T06:29:24;2.67;;;2.47;;
2728;SDS011;1372;47.956;7.830;2024-02-26T06:31:53;4.53;;;4.13;;
2728;SDS011;1372;47.956;7.830;2024-02-26T06:34:24;3.80;;;3.50;;
2728;SDS011;1372;47.956;7.830;2024-02-26T06:36:53;2.90;;;2.60;;
2728;SDS011;1372;47.956;7.830;2024-02-26T06:39:23;2.30;;;2.20;;
2728;SDS011;1372;47.956;7.830;2024-02-26T06:41:52;2.63;;;2.43;;
2728;SDS011;1372;47.956;7.830;2024-02-26T06:44:27;1.33;;;1.30;;
2728;SDS011;1372;47.956;7.830;2024-02-26T06:46:58;9.17;;;5.77;;
2728;SDS011;1372;47.956;7.830;2024-02-26T06:49:28;9.77;;;6.67;;
2728;SDS011;1372;47.956;7.830;2024-02-26T06:51:57;5.80;;;4.70;;
2728;SDS011;1372;47.956;7.830;2024-02-26T06:54:27;3.87;;;3.23;;
2728;SDS011;1372;47.956;7.830;2024-02-26T06:57:00;2.73;;;2.17;;
2728;SDS011;1372;47.956;7.830;2024-02-26T06:59:32;6.80;;;5.70;;
2728;SDS011;1372;47.956;7.830;2024-02-26T07:02:01;6.57;;;4.33;;
2728;SDS011;1372;47.956;7.830;2024-02-26T07:04:32;3.80;;;3.40;;
2728;SDS011;1372;47.956;7.830;2024-02-26T07:07:01;2.57;;;2.27;;
2728;SDS011;1372;47.956;7.830;2024-02-26T07:09:31;1.30;;;1.20;;
2728;SDS011;1372;47.956;7.830;2024-02-26T07:12:01;2.03;;;1.73;;
2728;SDS011;1372;47.956;7.830;2024-02-26T07:14:30;1.47;;;1.37;;
2728;SDS011;1372;47.956;7.830;2024-02-26T07:17:00;0.80;;;0.80;;
2728;SDS011;1372;47.956;7.830;2024-02-26T07:19:29;2.20;;;0.80;;
2728;SDS011;1372;47.956;7.830;2024-02-26T07:21:58;1.13;;;1.07;;
2728;SDS011;1372;47.956;7.830;2024-02-26T07:24:28;0.87;;;0.70;;
2728;SDS011;1372;47.956;7.830;2024-02-26T07:26:58;2.40;;;2.20;;
2728;SDS011;1372;47.956;7.830;2024-02-26T07:29:29;2.60;;;2.40;;
2728;SDS011;1372;47.956;7.830;2024-02-26T07:31:58;3.67;;;3.23;;
2728;SDS011;1372;47.956;7.830;2024-02-26T07:34:27;3.33;;;2.50;;
2728;SDS011;1372;47.956;7.830;2024-02-26T07:36:56;5.80;;;3.77;;
2728;SDS011;1372;47.956;7.830;2024-02-26T07:39:25;6.63;;;4.57;;
2728;SDS011;1372;47.956;7.830;2024-02-26T07:41:54;5.40;;;3.20;;
2728;SDS011;1372;47.956;7.830;2024-02-26T07:44:25;7.70;;;3.80;;
2728;SDS011;1372;47.956;7.830;2024-02-26T07:46:56;5.23;;;3.60;;
2728;SDS011;1372;47.956;7.830;2024-02-26T07:49:27;18.93;;;9.67;;
2728;SDS011;1372;47.956;7.830;2024-02-26T07:51:56;18.20;;;9.63;;
2728;SDS011;1372;47.956;7.830;2024-02-26T07:54:25;17.50;;;9.90;;
2728;SDS011;1372;47.956;7.830;2024-02-26T07:56:54;14.60;;;10.47;;
2728;SDS011;1372;47.956;7.830;2024-02-26T07:59:25;11.07;;;7.90;;
2728;SDS011;1372;47.956;7.830;2024-02-26T08:01:54;9.10;;;5.70;;
2728;SDS011;1372;47.956;7.830;2024-02-26T08:04:24;22.83;;;10.33;;
2728;SDS011;1372;47.956;7.830;2024-02-26T08:06:55;20.13;;;9.50;;
2728;SDS011;1372;47.956;7.830;2024-02-26T08:09:25;27.97;;;10.57;;
2728;SDS011;1372;47.956;7.830;2024-02-26T08:11:54;21.30;;;9.17;;
2728;SDS011;1372;47.956;7.830;2024-02-26T08:14:25;24.73;;;10.90;;
2728;SDS011;1372;47.956;7.830;2024-02-26T08:16:54;14.17;;;7.83;;
2728;SDS011;1372;47.956;7.830;2024-02-26T08:19:24;8.60;;;5.30;;
2728;SDS011;1372;47.956;7.830;2024-02-26T08:21:54;7.10;;;4.03;;
2728;SDS011;1372;47.956;7.830;2024-02-26T08:24:23;5.43;;;3.43;;
2728;SDS011;1372;47.956;7.830;2024-02-26T08:26:52;2.33;;;1.73;;
2728;SDS011;1372;47.956;7.830;2024-02-26T08:29:21;2.23;;;1.93;;
2728;SDS011;1372;47.956;7.830;2024-02-26T08:31:52;5.67;;;5.17;;
2728;SDS011;1372;47.956;7.830;2024-02-26T08:34:21;4.03;;;3.33;;
2728;SDS011;1372;47.956;7.830;2024-02-26T08:36:50;9.73;;;3.33;;
2728;SDS011;1372;47.956;7.830;2024-02-26T08:39:19;3.80;;;3.40;;
2728;SDS011;1372;47.956;7.830;2024-02-26T08:41:48;6.73;;;5.10;;
2728;SDS011;1372;47.956;7.830;2024-02-26T08:44:18;3.13;;;2.80;;
2728;SDS011;1372;47.956;7.830;2024-02-26T08:46:46;3.30;;;2.80;;
2728;SDS011;1372;47.956;7.830;2024-02-26T08:49:19;4.30;;;2.93;;
2728;SDS011;1372;47.956;7.830;2024-02-26T08:51:50;2.83;;;2.53;;
2728;SDS011;1372;47.956;7.830;2024-02-26T08:54:19;3.17;;;2.47;;
2728;SDS011;1372;47.956;7.830;2024-02-26T08:56:51;3.43;;;2.13;;
2728;SDS011;1372;47.956;7.830;2024-02-26T08:59:20;3.43;;;3.13;;
2728;SDS011;1372;47.956;7.830;2024-02-26T09:01:49;2.60;;;2.40;;
2728;SDS011;1372;47.956;7.830;2024-02-26T09:04:20;2.87;;;2.60;;
2728;SDS011;1372;47.956;7.830;2024-02-26T09:06:50;2.60;;;2.40;;
2728;SDS011;1372;47.956;7.830;2024-02-26T09:09:19;4.70;;;2.47;;
2728;SDS011;1372;47.956;7.830;2024-02-26T09:11:49;4.70;;;3.20;;
2728;SDS011;1372;47.956;7.830;2024-02-26T09:14:21;2.63;;;2.53;;
2728;SDS011;1372;47.956;7.830;2024-02-26T09:16:53;3.87;;;2.67;;
2728;SDS011;1372;47.956;7.830;2024-02-26T09:19:23;2.13;;;1.93;;
2728;SDS011;1372;47.956;7.830;2024-02-26T09:21:54;1.80;;;1.70;;
2728;SDS011;1372;47.956;7.830;2024-02-26T09:24:24;2.20;;;2.10;;
2728;SDS011;1372;47.956;7.830;2024-02-26T09:26:56;2.00;;;1.90;;
2728;SDS011;1372;47.956;7.830;2024-02-26T09:29:25;2.57;;;2.37;;
2728;SDS011;1372;47.956;7.830;2024-02-26T09:31:56;1.87;;;1.77;;
2728;SDS011;1372;47.956;7.830;2024-02-26T09:34:27;2.30;;;2.13;;
2728;SDS011;1372;47.956;7.830;2024-02-26T09:36:58;2.40;;;2.20;;
2728;SDS011;1372;47.956;7.830;2024-02-26T09:39:31;5.07;;;2.77;;
2728;SDS011;1372;47.956;7.830;2024-02-26T09:42:00;4.10;;;3.00;;
2728;SDS011;1372;47.956;7.830;2024-02-26T09:44:35;3.33;;;3.13;;
2728;SDS011;1372;47.956;7.830;2024-02-26T09:47:11;4.00;;;3.00;;
2728;SDS011;1372;47.956;7.830;2024-02-26T09:49:45;3.03;;;2.83;;
2728;SDS011;1372;47.956;7.830;2024-02-26T09:52:15;2.50;;;2.30;;
2728;SDS011;1372;47.956;7.830;2024-02-26T09:54:47;4.10;;;3.10;;
2728;SDS011;1372;47.956;7.830;2024-02-26T09:57:16;2.70;;;2.30;;
2728;SDS011;1372;47.956;7.830;2024-02-26T09:59:47;4.07;;;3.33;;
2728;SDS011;1372;47.956;7.830;2024-02-26T10:02:21;5.30;;;3.17;;
2728;SDS011;1372;47.956;7.830;2024-02-26T10:04:53;3.87;;;3.57;;
2728;SDS011;1372;47.956;7.830;2024-02-26T10:07:27;3.93;;;3.60;;
2728;SDS011;1372;47.956;7.830;2024-02-26T10:09:58;3.30;;;3.10;;
2728;SDS011;1372;47.956;7.830;2024-02-26T10:12:27;3.00;;;2.20;;
2728;SDS011;1372;47.956;7.830;2024-02-26T10:14:58;3.90;;;3.00;;
2728;SDS011;1372;47.956;7.830;2024-02-26T10:17:28;4.43;;;3.83;;
2728;SDS011;1372;47.956;7.830;2024-02-26T10:20:04;2.47;;;2.27;;
2728;SDS011;1372;47.956;7.830;2024-02-26T10:22:41;2.50;;;2.30;;
2728;SDS011;1372;47.956;7.830;2024-02-26T10:25:10;3.17;;;1.80;;
2728;SDS011;1372;47.956;7.830;2024-02-26T10:27:40;2.03;;;1.87;;
2728;SDS011;1372;47.956;7.830;2024-02-26T10:30:18;2.80;;;2.10;;
2728;SDS011;1372;47.956;7.830;2024-02-26T10:32:49;4.40;;;3.80;;
2728;SDS011;1372;47.956;7.830;2024-02-26T10:35:20;3.13;;;2.70;;
2728;SDS011;1372;47.956;7.830;2024-02-26T10:37:52;2.70;;;2.10;;
2728;SDS011;1372;47.956;7.830;2024-02-26T10:40:21;2.20;;;2.00;;
2728;SDS011;1372;47.956;7.830;2024-02-26T10:42:50;2.53;;;2.20;;
2728;SDS011;1372;47.956;7.830;2024-02-26T10:45:19;2.83;;;2.40;;
2728;SDS011;1372;47.956;7.830;2024-02-26T10:47:49;2.83;;;2.57;;
2728;SDS011;1372;47.956;7.830;2024-02-26T10:50:20;2.97;;;2.67;;
2728;SDS011;1372;47.956;7.830;2024-02-26T10:52:52;2.50;;;2.30;;
2728;SDS011;1372;47.956;7.830;2024-02-26T10:55:23;2.43;;;2.23;;
2728;SDS011;1372;47.956;7.830;2024-02-26T10:57:52;2.33;;;2.13;;
2728;SDS011;1372;47.956;7.830;2024-02-26T11:00:22;2.43;;;2.00;;
2728;SDS011;1372;47.956;7.830;2024-02-26T11:02:52;3.00;;;2.70;;
2728;SDS011;1372;47.956;7.830;2024-02-26T11:05:23;2.47;;;2.27;;
2728;SDS011;1372;47.956;7.830;2024-02-26T11:07:52;2.50;;;2.30;;
2728;SDS011;1372;47.956;7.830;2024-02-26T11:10:22;2.00;;;1.90;;
2728;SDS011;1372;47.956;7.830;2024-02-26T11:12:53;2.47;;;2.27;;
2728;SDS011;1372;47.956;7.830;2024-02-26T11:15:24;3.03;;;2.60;;
2728;SDS011;1372;47.956;7.830;2024-02-26T11:17:54;2.30;;;2.10;;
2728;SDS011;1372;47.956;7.830;2024-02-26T11:20:26;2.70;;;2.50;;
2728;SDS011;1372;47.956;7.830;2024-02-26T11:22:58;2.57;;;2.07;;
2728;SDS011;1372;47.956;7.830;2024-02-26T11:25:28;3.50;;;2.10;;
2728;SDS011;1372;47.956;7.830;2024-02-26T11:27:59;5.00;;;2.70;;
2728;SDS011;1372;47.956;7.830;2024-02-26T11:30:33;2.97;;;2.30;;
2728;SDS011;1372;47.956;7.830;2024-02-26T11:33:06;3.20;;;2.30;;
2728;SDS011;1372;47.956;7.830;2024-02-26T11:35:41;3.20;;;2.40;;
2728;SDS011;1372;47.956;7.830;2024-02-26T11:38:15;3.20;;;2.20;;
2728;SDS011;1372;47.956;7.830;2024-02-26T11:40:50;4.13;;;3.73;;
2728;SDS011;1372;47.956;7.830;2024-02-26T11:43:23;6.50;;;5.87;;
2728;SDS011;1372;47.956;7.830;2024-02-26T11:46:25;1.93;;;1.83;;
2728;SDS011;1372;47.956;7.830;2024-02-26T11:48:58;2.17;;;1.50;;
2728;SDS011;1372;47.956;7.830;2024-02-26T11:51:33;3.67;;;2.87;;
2728;SDS011;1372;47.956;7.830;2024-02-26T11:54:03;5.03;;;4.53;;
2728;SDS011;1372;47.956;7.830;2024-02-26T11:56:33;2.27;;;2.13;;
2728;SDS011;1372;47.956;7.830;2024-02-26T11:59:05;2.50;;;2.30;;
2728;SDS011;1372;47.956;7.830;2024-02-26T12:01:45;3.33;;;2.13;;
2728;SDS011;1372;47.956;7.830;2024-02-26T12:04:17;2.20;;;2.00;;
2728;SDS011;1372;47.956;7.830;2024-02-26T12:06:51;2.90;;;2.50;;
2728;SDS011;1372;47.956;7.830;2024-02-26T12:09:30;2.63;;;2.43;;
2728;SDS011;1372;47.956;7.830;2024-02-26T12:12:01;2.40;;;2.20;;
2728;SDS011;1372;47.956;7.830;2024-02-26T12:14:35;22.17;;;20.30;;
2728;SDS011;1372;47.956;7.830;2024-02-26T12:17:08;4.33;;;4.00;;
2728;SDS011;1372;47.956;7.830;2024-02-26T12:19:48;4.90;;;4.50;;
2728;SDS011;1372;47.956;7.830;2024-02-26T12:22:19;3.37;;;3.13;;
2728;SDS011;1372;47.956;7.830;2024-02-26T12:24:47;4.30;;;4.00;;
2728;SDS011;1372;47.956;7.830;2024-02-26T12:27:28;3.00;;;2.80;;
2728;SDS011;1372;47.956;7.830;2024-02-26T12:30:00;2.80;;;2.53;;
2728;SDS011;1372;47.956;7.830;2024-02-26T12:32:30;12.80;;;11.57;;
2728;SDS011;1372;47.956;7.830;2024-02-26T12:34:59;2.23;;;2.10;;
2728;SDS011;1372;47.956;7.830;2024-02-26T12:37:30;3.00;;;2.70;;
2728;SDS011;1372;47.956;7.830;2024-02-26T12:40:00;3.17;;;2.97;;
2728;SDS011;1372;47.956;7.830;2024-02-26T12:42:30;2.10;;;1.93;;
2728;SDS011;1372;47.956;7.830;2024-02-26T12:45:06;1.70;;;1.60;;
2728;SDS011;1372;47.956;7.830;2024-02-26T12:47:37;2.53;;;2.10;;
2728;SDS011;1372;47.956;7.830;2024-02-26T12:50:06;2.67;;;2.10;;
2728;SDS011;1372;47.956;7.830;2024-02-26T12:52:40;2.30;;;2.13;;
2728;SDS011;1372;47.956;7.830;2024-02-26T12:55:13;2.00;;;1.80;;
2728;SDS011;1372;47.956;7.830;2024-02-26T12:57:43;3.60;;;1.83;;
2728;SDS011;1372;47.956;7.830;2024-02-26T13:00:13;2.00;;;1.80;;
2728;SDS011;1372;47.956;7.830;2024-02-26T13:02:46;3.77;;;2.30;;
2728;SDS011;1372;47.956;7.830;2024-02-26T13:05:16;4.60;;;2.90;;
2728;SDS011;1372;47.956;7.830;2024-02-26T13:07:50;3.47;;;3.10;;
2728;SDS011;1372;47.956;7.830;2024-02-26T13:10:20;2.90;;;2.70;;
2728;SDS011;1372;47.956;7.830;2024-02-26T13:12:49;2.57;;;2.37;;
2728;SDS011;1372;47.956;7.830;2024-02-26T13:15:19;1.83;;;1.73;;
2728;SDS011;1372;47.956;7.830;2024-02-26T13:17:52;2.30;;;2.10;;
2728;SDS011;1372;47.956;7.830;2024-02-26T13:20:26;2.37;;;2.00;;
2728;SDS011;1372;47.956;7.830;2024-02-26T13:23:01;2.40;;;2.20;;
2728;SDS011;1372;47.956;7.830;2024-02-26T13:25:32;4.13;;;3.73;;
2728;SDS011;1372;47.956;7.830;2024-02-26T13:28:08;2.57;;;2.37;;
2728;SDS011;1372;47.956;7.830;2024-02-26T13:30:49;1.93;;;1.83;;
2728;SDS011;1372;47.956;7.830;2024-02-26T13:33:19;3.00;;;2.70;;
2728;SDS011;1372;47.956;7.830;2024-02-26T13:35:50;2.40;;;1.63;;
2728;SDS011;1372;47.956;7.830;2024-02-26T13:38:21;1.90;;;1.50;;
2728;SDS011;1372;47.956;7.830;2024-02-26T13:40:51;1.97;;;1.87;;
2728;SDS011;1372;47.956;7.830;2024-02-26T13:43:20;3.03;;;2.40;;
2728;SDS011;1372;47.956;7.830;2024-02-26T13:45:50;2.40;;;2.30;;
2728;SDS011;1372;47.956;7.830;2024-02-26T13:48:19;2.20;;;2.10;;
2728;SDS011;1372;47.956;7.830;2024-02-26T13:50:49;2.10;;;2.00;;
2728;SDS011;1372;47.956;7.830;2024-02-26T13:53:18;1.80;;;1.50;;
2728;SDS011;1372;47.956;7.830;2024-02-26T13:55:52;2.27;;;1.67;;
2728;SDS011;1372;47.956;7.830;2024-02-26T13:58:21;2.50;;;1.40;;
2728;SDS011;1372;47.956;7.830;2024-02-26T14:00:50;1.50;;;1.40;;
2728;SDS011;1372;47.956;7.830;2024-02-26T14:03:19;1.50;;;1.40;;
2728;SDS011;1372;47.956;7.830;2024-02-26T14:05:48;1.23;;;1.13;;
2728;SDS011;1372;47.956;7.830;2024-02-26T14:08:17;1.53;;;1.43;;
2728;SDS011;1372;47.956;7.830;2024-02-26T14:10:47;1.73;;;1.63;;
2728;SDS011;1372;47.956;7.830;2024-02-26T14:13:17;1.60;;;1.43;;
2728;SDS011;1372;47.956;7.830;2024-02-26T14:15:46;1.30;;;1.20;;
2728;SDS011;1372;47.956;7.830;2024-02-26T14:18:15;1.63;;;1.53;;
2728;SDS011;1372;47.956;7.830;2024-02-26T14:20:44;2.17;;;1.60;;
2728;SDS011;1372;47.956;7.830;2024-02-26T14:23:14;1.23;;;1.10;;
2728;SDS011;1372;47.956;7.830;2024-02-26T14:25:43;1.90;;;1.80;;
2728;SDS011;1372;47.956;7.830;2024-02-26T14:28:12;1.80;;;1.70;;
2728;SDS011;1372;47.956;7.830;2024-02-26T14:30:46;1.80;;;1.70;;
2728;SDS011;1372;47.956;7.830;2024-02-26T14:33:15;2.00;;;1.60;;
2728;SDS011;1372;47.956;7.830;2024-02-26T14:35:44;1.60;;;1.50;;
2728;SDS011;1372;47.956;7.830;2024-02-26T14:38:13;1.77;;;1.67;;
2728;SDS011;1372;47.956;7.830;2024-02-26T14:40:43;1.37;;;1.27;;
2728;SDS011;1372;47.956;7.830;2024-02-26T14:43:13;1.70;;;1.20;;
2728;SDS011;1372;47.956;7.830;2024-02-26T14:45:41;1.57;;;1.47;;
2728;SDS011;1372;47.956;7.830;2024-02-26T14:48:12;1.80;;;1.47;;
2728;SDS011;1372;47.956;7.830;2024-02-26T14:50:41;3.43;;;1.30;;
2728;SDS011;1372;47.956;7.830;2024-02-26T14:53:10;1.87;;;1.37;;
2728;SDS011;1372;47.956;7.830;2024-02-26T14:55:39;1.70;;;1.00;;
2728;SDS011;1372;47.956;7.830;2024-02-26T14:58:08;1.30;;;1.20;;
2728;SDS011;1372;47.956;7.830;2024-02-26T15:00:38;1.67;;;1.57;;
2728;SDS011;1372;47.956;7.830;2024-02-26T15:03:07;1.10;;;1.00;;
2728;SDS011;1372;47.956;7.830;2024-02-26T15:05:40;1.73;;;1.23;;
2728;SDS011;1372;47.956;7.830;2024-02-26T15:08:10;1.70;;;1.20;;
2728;SDS011;1372;47.956;7.830;2024-02-26T15:10:44;1.73;;;1.53;;
2728;SDS011;1372;47.956;7.830;2024-02-26T15:13:15;1.50;;;1.10;;
2728;SDS011;1372;47.956;7.830;2024-02-26T15:15:45;1.23;;;1.13;;
2728;SDS011;1372;47.956;7.830;2024-02-26T15:18:17;1.50;;;1.40;;
2728;SDS011;1372;47.956;7.830;2024-02-26T15:20:50;1.47;;;1.17;;
2728;SDS011;1372;47.956;7.830;2024-02-26T15:23:19;1.50;;;1.40;;
2728;SDS011;1372;47.956;7.830;2024-02-26T15:25:48;3.97;;;1.40;;
2728;SDS011;1372;47.956;7.830;2024-02-26T15:28:17;1.83;;;1.40;;
2728;SDS011;1372;47.956;7.830;2024-02-26T15:30:46;1.90;;;1.60;;
2728;SDS011;1372;47.956;7.830;2024-02-26T15:33:15;2.57;;;2.10;;
2728;SDS011;1372;47.956;7.830;2024-02-26T15:35:45;2.40;;;1.67;;